createdAt,value
2022-12-01T00:02:17.063Z,5.22
2022-12-01T00:04:45.115Z,4.28
2022-12-01T00:07:12.870Z,3.42
2022-12-01T00:10:00.143Z,3.67
2022-12-01T00:12:26.615Z,3.72
2022-12-01T00:15:01.176Z,4.28
2022-12-01T00:17:29.280Z,2.88
2022-12-01T00:19:57.265Z,3.70
2022-12-01T00:22:24.847Z,5.70
2022-12-01T00:24:52.475Z,6.00
2022-12-01T00:27:18.997Z,5.07
2022-12-01T00:29:46.373Z,3.97
2022-12-01T00:32:13.407Z,3.92
2022-12-01T00:34:40.048Z,3.25
2022-12-01T00:37:06.476Z,4.05
2022-12-01T00:39:32.942Z,2.97
2022-12-01T00:41:59.340Z,7.60
2022-12-01T00:44:26.951Z,4.40
2022-12-01T00:46:54.741Z,2.53
2022-12-01T00:49:24.806Z,3.05
2022-12-01T00:51:53.257Z,4.50
2022-12-01T00:54:20.841Z,5.55
2022-12-01T00:56:48.565Z,4.47
2022-12-01T00:59:16.069Z,4.20
2022-12-01T01:01:43.743Z,4.85
2022-12-01T01:04:10.661Z,2.63
2022-12-01T01:06:38.163Z,2.90
2022-12-01T01:09:05.794Z,2.55
2022-12-01T01:11:33.646Z,2.30
2022-12-01T01:14:01.073Z,1.95
2022-12-01T01:16:28.784Z,2.55
2022-12-01T01:18:58.416Z,2.67
2022-12-01T01:21:26.726Z,3.35
2022-12-01T01:23:55.055Z,3.65
2022-12-01T01:26:24.498Z,2.35
2022-12-01T01:28:54.651Z,1.60
2022-12-01T01:31:23.853Z,2.33
2022-12-01T01:33:51.594Z,1.65
2022-12-01T01:36:19.431Z,1.85
2022-12-01T01:38:46.332Z,3.08
2022-12-01T01:41:14.265Z,5.18
2022-12-01T01:43:46.654Z,1.75
2022-12-01T01:46:16.268Z,2.83
2022-12-01T01:48:49.041Z,1.70
2022-12-01T01:51:17.089Z,1.63
2022-12-01T01:53:45.517Z,1.88
2022-12-01T01:56:11.986Z,1.55
2022-12-01T01:58:38.903Z,1.13
2022-12-01T02:01:05.954Z,1.80
2022-12-01T02:03:34.463Z,4.72
2022-12-01T02:06:05.196Z,1.55
2022-12-01T02:08:34.345Z,1.80
2022-12-01T02:11:03.579Z,1.83
2022-12-01T02:13:35.948Z,2.70
2022-12-01T02:16:17.426Z,1.60
2022-12-01T02:18:54.038Z,3.45
2022-12-01T02:21:35.779Z,1.98
2022-12-01T02:24:20.807Z,2.85
2022-12-01T02:27:05.995Z,3.45
2022-12-01T02:29:51.425Z,4.88
2022-12-01T02:32:29.940Z,3.75
2022-12-01T02:35:17.727Z,3.00
2022-12-01T02:38:07.210Z,3.58
2022-12-01T02:40:52.445Z,1.45
2022-12-01T02:43:21.478Z,2.35
2022-12-01T02:45:54.244Z,4.93
2022-12-01T02:48:33.955Z,2.53
2022-12-01T02:51:07.302Z,1.77
2022-12-01T02:53:34.184Z,2.80
2022-12-01T02:56:00.862Z,2.40
2022-12-01T02:58:27.344Z,1.42
2022-12-01T03:01:08.999Z,2.20
2022-12-01T03:03:38.348Z,2.03
2022-12-01T03:06:13.948Z,3.65
2022-12-01T03:08:50.374Z,2.47
2022-12-01T03:11:27.242Z,1.75
2022-12-01T03:14:14.478Z,2.15
2022-12-01T03:16:40.994Z,1.13
2022-12-01T03:19:10.341Z,2.17
2022-12-01T03:21:41.491Z,1.58
2022-12-01T03:24:13.350Z,2.13
2022-12-01T03:29:30.765Z,1.33
2022-12-01T03:32:00.070Z,2.90
2022-12-01T03:34:34.738Z,4.15
2022-12-01T03:37:04.595Z,3.15
2022-12-01T03:39:35.117Z,1.95
2022-12-01T03:42:04.031Z,2.85
2022-12-01T03:44:36.483Z,1.38
2022-12-01T03:47:22.723Z,2.40
2022-12-01T03:49:50.956Z,4.38
2022-12-01T03:52:23.739Z,1.63
2022-12-01T03:54:55.391Z,2.08
2022-12-01T03:57:27.305Z,1.60
2022-12-01T04:02:20.187Z,3.10
2022-12-01T04:04:46.614Z,2.90
2022-12-01T04:07:14.402Z,2.20
2022-12-01T04:09:41.647Z,1.83
2022-12-01T04:12:28.194Z,1.55
2022-12-01T04:14:54.636Z,2.10
2022-12-01T04:17:21.159Z,2.22
2022-12-01T04:19:48.028Z,1.83
2022-12-01T04:22:14.704Z,1.38
2022-12-01T04:24:41.180Z,1.85
2022-12-01T04:27:07.613Z,2.05
2022-12-01T04:29:34.119Z,1.73
2022-12-01T04:32:00.592Z,1.23
2022-12-01T04:34:27.075Z,1.48
2022-12-01T04:36:53.625Z,1.98
2022-12-01T04:39:20.098Z,1.30
2022-12-01T04:41:46.630Z,1.80
2022-12-01T04:44:13.174Z,1.52
2022-12-01T04:46:39.703Z,1.02
2022-12-01T04:49:06.294Z,1.08
2022-12-01T04:51:32.780Z,3.30
2022-12-01T04:53:59.352Z,2.35
2022-12-01T04:56:25.770Z,2.13
2022-12-01T04:58:52.233Z,2.15
2022-12-01T05:01:19.206Z,1.80
2022-12-01T05:03:46.579Z,1.83
2022-12-01T05:06:14.352Z,3.33
2022-12-01T05:08:41.176Z,3.45
2022-12-01T05:11:08.855Z,1.92
2022-12-01T05:13:40.058Z,2.80
2022-12-01T05:16:12.777Z,2.22
2022-12-01T05:18:39.353Z,1.63
2022-12-01T05:21:07.093Z,2.75
2022-12-01T05:23:34.790Z,3.95
2022-12-01T05:26:01.861Z,4.25
2022-12-01T05:28:28.537Z,10.02
2022-12-01T05:30:55.329Z,4.10
2022-12-01T05:33:25.195Z,2.20
2022-12-01T05:35:51.963Z,2.90
2022-12-01T05:38:19.110Z,1.75
2022-12-01T05:40:52.500Z,1.63
2022-12-01T05:43:23.892Z,2.83
2022-12-01T05:45:54.337Z,2.10
2022-12-01T05:48:20.938Z,3.20
2022-12-01T05:50:47.380Z,4.32
2022-12-01T05:53:14.386Z,5.68
2022-12-01T05:55:40.940Z,3.35
2022-12-01T05:58:07.610Z,2.13
2022-12-01T06:00:34.128Z,2.35
2022-12-01T06:03:00.627Z,3.15
2022-12-01T06:05:27.065Z,1.23
2022-12-01T06:07:53.527Z,2.60
2022-12-01T06:10:20.050Z,1.88
2022-12-01T06:12:46.444Z,3.30
2022-12-01T06:15:14.072Z,2.70
2022-12-01T06:17:40.865Z,7.03
2022-12-01T06:20:08.123Z,4.70
2022-12-01T06:22:34.660Z,3.30
2022-12-01T06:25:01.122Z,3.40
2022-12-01T06:27:27.590Z,2.58
2022-12-01T06:29:54.343Z,2.05
2022-12-01T06:32:21.048Z,2.60
2022-12-01T06:34:47.530Z,2.47
2022-12-01T06:37:15.769Z,2.53
2022-12-01T06:39:43.058Z,2.35
2022-12-01T06:42:09.956Z,2.63
2022-12-01T06:44:36.439Z,2.78
2022-12-01T06:47:03.405Z,4.05
2022-12-01T06:49:29.810Z,2.08
2022-12-01T06:51:56.272Z,6.60
2022-12-01T06:54:22.761Z,7.43
2022-12-01T06:56:49.487Z,4.03
2022-12-01T06:59:16.343Z,5.35
2022-12-01T07:01:43.378Z,5.63
2022-12-01T07:04:09.914Z,5.80
2022-12-01T07:06:36.395Z,3.33
2022-12-01T07:09:02.915Z,8.65
2022-12-01T07:11:32.245Z,14.30
2022-12-01T07:13:58.745Z,17.65
2022-12-01T07:16:25.371Z,15.02
2022-12-01T07:18:52.638Z,13.23
2022-12-01T07:21:19.063Z,19.30
2022-12-01T07:23:45.669Z,30.63
2022-12-01T07:26:12.243Z,32.47
2022-12-01T07:28:38.672Z,19.90
2022-12-01T07:31:06.394Z,6.70
2022-12-01T07:33:32.873Z,7.60
2022-12-01T07:35:59.495Z,19.20
2022-12-01T07:38:27.565Z,3.78
2022-12-01T07:40:54.128Z,5.47
2022-12-01T07:43:20.584Z,5.57
2022-12-01T07:45:47.281Z,3.75
2022-12-01T07:48:13.743Z,4.25
2022-12-01T07:50:40.137Z,7.93
2022-12-01T07:53:07.098Z,3.80
2022-12-01T07:55:33.466Z,3.03
2022-12-01T07:58:00.767Z,4.82
2022-12-01T08:00:27.370Z,5.43
2022-12-01T08:02:54.978Z,7.15
2022-12-01T08:05:21.575Z,6.72
2022-12-01T08:07:48.086Z,6.13
2022-12-01T08:10:14.549Z,4.50
2022-12-01T08:12:41.069Z,3.80
2022-12-01T08:15:07.681Z,11.38
2022-12-01T08:17:34.181Z,4.25
2022-12-01T08:20:00.675Z,6.38
2022-12-01T08:22:27.181Z,4.00
2022-12-01T08:24:53.657Z,2.85
2022-12-01T08:27:20.088Z,4.15
2022-12-01T08:29:46.943Z,4.80
2022-12-01T08:32:13.614Z,3.45
2022-12-01T08:34:41.496Z,5.78
2022-12-01T08:37:08.174Z,3.58
2022-12-01T08:39:34.744Z,4.80
2022-12-01T08:42:01.274Z,2.88
2022-12-01T08:44:27.759Z,5.63
2022-12-01T08:46:54.579Z,3.22
2022-12-01T08:49:22.485Z,3.00
2022-12-01T08:51:49.056Z,3.40
2022-12-01T08:54:15.447Z,21.60
2022-12-01T08:56:43.022Z,6.30
2022-12-01T08:59:12.228Z,10.10
2022-12-01T09:01:54.342Z,10.23
2022-12-01T09:04:22.547Z,10.18
2022-12-01T09:06:50.020Z,8.18
2022-12-01T09:09:27.234Z,5.93
2022-12-01T09:11:54.392Z,9.68
2022-12-01T09:14:21.899Z,6.88
2022-12-01T09:16:49.958Z,7.40
2022-12-01T09:19:23.670Z,6.65
2022-12-01T09:21:51.403Z,5.82
2022-12-01T09:24:18.128Z,7.88
2022-12-01T09:26:44.556Z,15.75
2022-12-01T09:29:14.572Z,14.40
2022-12-01T09:31:41.552Z,9.70
2022-12-01T09:34:08.945Z,6.53
2022-12-01T09:36:36.201Z,8.38
2022-12-01T09:39:03.594Z,7.68
2022-12-01T09:41:31.313Z,6.70
2022-12-01T09:44:14.025Z,7.32
2022-12-01T09:46:46.819Z,7.43
2022-12-01T09:49:19.696Z,6.80
2022-12-01T09:51:46.176Z,7.15
2022-12-01T09:54:13.485Z,6.30
2022-12-01T09:56:46.093Z,6.50
2022-12-01T09:59:17.929Z,16.02
2022-12-01T10:04:26.581Z,19.85
2022-12-01T10:06:59.447Z,9.88
2022-12-01T10:09:28.683Z,8.15
2022-12-01T10:12:01.333Z,9.95
2022-12-01T10:14:30.831Z,6.32
2022-12-01T10:17:19.550Z,8.02
2022-12-01T10:20:13.338Z,6.82
2022-12-01T10:22:45.864Z,5.03
2022-12-01T10:25:25.769Z,5.50
2022-12-01T10:27:57.972Z,7.93
2022-12-01T10:30:24.916Z,6.75
2022-12-01T10:32:52.702Z,6.03
2022-12-01T10:35:23.709Z,9.13
2022-12-01T10:37:53.890Z,8.80
2022-12-01T10:40:20.373Z,9.05
2022-12-01T10:42:48.107Z,10.75
2022-12-01T10:45:21.708Z,12.07
2022-12-01T10:48:06.827Z,11.15
2022-12-01T10:50:34.328Z,10.95
2022-12-01T10:53:00.771Z,11.63
2022-12-01T10:55:28.615Z,6.95
2022-12-01T10:57:56.813Z,10.70
2022-12-01T11:00:57.415Z,8.88
2022-12-01T11:03:21.839Z,8.07
2022-12-01T11:05:54.173Z,12.88
2022-12-01T11:10:49.179Z,25.15
2022-12-01T11:13:23.898Z,25.13
2022-12-01T11:15:54.967Z,20.45
2022-12-01T11:18:27.599Z,16.50
2022-12-01T11:21:07.740Z,34.53
2022-12-01T11:23:53.680Z,22.95
2022-12-01T11:26:34.462Z,22.55
2022-12-01T11:29:02.354Z,20.88
2022-12-01T11:31:42.791Z,21.88
2022-12-01T11:34:20.319Z,16.05
2022-12-01T11:36:48.525Z,16.45
2022-12-01T11:39:24.011Z,22.25
2022-12-01T11:41:55.104Z,64.78
2022-12-01T11:47:23.131Z,68.63
2022-12-01T11:49:56.719Z,38.25
2022-12-01T11:52:25.378Z,30.80
2022-12-01T11:55:15.501Z,26.40
2022-12-01T11:57:43.562Z,21.95
2022-12-01T12:00:17.321Z,12.80
2022-12-01T12:02:46.647Z,20.98
2022-12-01T12:05:32.110Z,25.45
2022-12-01T12:08:05.899Z,11.93
2022-12-01T12:10:50.928Z,16.48
2022-12-01T12:13:32.533Z,15.35
2022-12-01T12:15:59.090Z,13.55
2022-12-01T12:18:37.885Z,18.40
2022-12-01T12:21:22.844Z,13.63
2022-12-01T12:23:58.294Z,9.85
2022-12-01T12:26:35.197Z,12.38
2022-12-01T12:29:24.783Z,16.20
2022-12-01T12:32:06.335Z,16.17
2022-12-01T12:34:35.623Z,18.08
2022-12-01T12:37:09.235Z,15.82
2022-12-01T12:39:41.624Z,17.23
2022-12-01T12:42:29.971Z,15.13
2022-12-01T12:45:03.174Z,14.30
2022-12-01T12:47:36.462Z,11.48
2022-12-01T12:50:21.635Z,13.38
2022-12-01T12:52:50.468Z,15.65
2022-12-01T12:55:23.488Z,25.70
2022-12-01T12:57:54.663Z,21.92
2022-12-01T13:00:24.059Z,16.08
2022-12-01T13:02:50.781Z,12.73
2022-12-01T13:05:17.471Z,15.93
2022-12-01T13:07:43.994Z,18.80
2022-12-01T13:10:30.684Z,20.77
2022-12-01T13:13:12.251Z,28.75
2022-12-01T13:15:39.253Z,26.60
2022-12-01T13:18:13.794Z,28.65
2022-12-01T13:20:40.862Z,26.52
2022-12-01T13:23:11.419Z,20.23
2022-12-01T13:25:40.001Z,26.35
2022-12-01T13:28:13.289Z,12.35
2022-12-01T13:30:39.818Z,31.92
2022-12-01T13:33:06.973Z,14.73
2022-12-01T13:35:39.855Z,12.23
2022-12-01T13:38:20.787Z,14.27
2022-12-01T13:40:47.790Z,14.10
2022-12-01T13:43:21.646Z,14.80
2022-12-01T13:45:48.853Z,19.65
2022-12-01T13:48:34.082Z,17.15
2022-12-01T13:51:04.051Z,27.73
2022-12-01T13:53:37.839Z,23.52
2022-12-01T13:56:05.699Z,33.00
2022-12-01T13:58:35.170Z,31.88
2022-12-01T14:01:20.086Z,23.00
2022-12-01T14:03:57.346Z,26.55
2022-12-01T14:06:26.627Z,21.23
2022-12-01T14:08:57.395Z,22.40
2022-12-01T14:11:24.973Z,15.77
2022-12-01T14:13:59.712Z,18.60
2022-12-01T14:16:44.784Z,20.08
2022-12-01T14:19:26.393Z,18.58
2022-12-01T14:21:53.007Z,21.05
2022-12-01T14:24:22.563Z,24.17
2022-12-01T14:26:49.309Z,26.02
2022-12-01T14:29:44.861Z,31.00
2022-12-01T14:32:17.034Z,31.70
2022-12-01T14:34:44.256Z,35.05
2022-12-01T14:37:12.184Z,29.02
2022-12-01T14:39:42.379Z,29.17
2022-12-01T14:42:11.804Z,35.70
2022-12-01T14:44:42.638Z,30.10
2022-12-01T14:47:23.144Z,46.70
2022-12-01T14:49:55.797Z,29.88
2022-12-01T14:52:22.243Z,32.97
2022-12-01T14:54:49.648Z,26.52
2022-12-01T14:57:17.612Z,28.25
2022-12-01T14:59:44.509Z,53.05
2022-12-01T15:02:12.218Z,138.90
2022-12-01T15:04:57.796Z,117.15
2022-12-01T15:07:24.404Z,48.78
2022-12-01T15:10:01.870Z,46.28
2022-12-01T15:12:29.594Z,70.55
2022-12-01T15:14:56.238Z,65.95
2022-12-01T15:17:32.977Z,84.40
2022-12-01T15:19:59.433Z,85.15
2022-12-01T15:22:33.737Z,92.82
2022-12-01T15:25:07.511Z,94.57
2022-12-01T15:27:33.991Z,86.63
2022-12-01T15:30:04.368Z,511.88
2022-12-01T15:32:32.230Z,990.17
2022-12-01T15:35:02.004Z,549.33
2022-12-01T15:37:28.798Z,499.30
2022-12-01T15:40:35.743Z,485.05
2022-12-01T15:42:44.535Z,268.23
2022-12-01T15:45:21.954Z,222.93
2022-12-01T15:47:52.347Z,57.00
2022-12-01T15:50:31.177Z,39.65
2022-12-01T15:52:58.702Z,33.53
2022-12-01T15:55:27.682Z,26.65
2022-12-01T15:57:54.383Z,28.92
2022-12-01T16:00:21.241Z,26.65
2022-12-01T16:02:52.668Z,33.30
2022-12-01T16:05:20.537Z,32.45
2022-12-01T16:08:12.694Z,38.45
2022-12-01T16:10:35.972Z,25.77
2022-12-01T16:13:21.153Z,49.10
2022-12-01T16:15:47.604Z,65.47
2022-12-01T16:18:25.991Z,61.72
2022-12-01T16:20:52.409Z,32.78
2022-12-01T16:23:23.106Z,23.77
2022-12-01T16:25:50.879Z,25.73
2022-12-01T16:28:35.853Z,30.23
2022-12-01T16:31:07.609Z,21.85
2022-12-01T16:33:38.279Z,18.00
2022-12-01T16:36:04.832Z,17.23
2022-12-01T16:38:31.241Z,18.23
2022-12-01T16:41:01.290Z,20.73
2022-12-01T16:43:28.707Z,19.35
2022-12-01T16:46:00.387Z,15.55
2022-12-01T16:48:26.991Z,15.55
2022-12-01T16:50:53.479Z,18.02
2022-12-01T16:53:19.973Z,16.90
2022-12-01T16:55:47.974Z,17.75
2022-12-01T16:58:14.495Z,21.35
2022-12-01T17:00:41.347Z,18.92
2022-12-01T17:03:08.240Z,16.02
2022-12-01T17:05:34.813Z,18.33
2022-12-01T17:08:01.424Z,17.08
2022-12-01T17:10:28.141Z,18.60
2022-12-01T17:12:54.646Z,25.27
2022-12-01T17:15:21.203Z,22.60
2022-12-01T17:17:47.676Z,21.40
2022-12-01T17:20:14.207Z,21.83
2022-12-01T17:22:40.713Z,19.02
2022-12-01T17:25:09.636Z,16.50
2022-12-01T17:27:36.993Z,23.15
2022-12-01T17:30:03.866Z,16.58
2022-12-01T17:32:30.471Z,22.70
2022-12-01T17:34:56.966Z,18.77
2022-12-01T17:37:23.524Z,22.67
2022-12-01T17:39:50.362Z,22.85
2022-12-01T17:42:16.834Z,25.40
2022-12-01T17:44:43.397Z,29.52
2022-12-01T17:47:09.930Z,24.88
2022-12-01T17:49:36.670Z,27.13
2022-12-01T17:52:04.130Z,46.35
2022-12-01T17:54:30.668Z,61.63
2022-12-01T17:56:57.129Z,60.03
2022-12-01T17:59:23.681Z,45.17
2022-12-01T18:01:50.126Z,289.67
2022-12-01T18:04:17.201Z,361.95
2022-12-01T18:06:47.971Z,375.52
2022-12-01T18:09:19.050Z,83.53
2022-12-01T18:11:45.466Z,128.98
2022-12-01T18:14:11.948Z,156.57
2022-12-01T18:16:38.513Z,138.52
2022-12-01T18:19:05.050Z,34.60
2022-12-01T18:21:31.613Z,39.05
2022-12-01T18:24:00.618Z,32.53
2022-12-01T18:26:29.156Z,54.15
2022-12-01T18:28:57.237Z,42.28
2022-12-01T18:31:24.000Z,36.90
2022-12-01T18:33:51.186Z,36.88
2022-12-01T18:36:19.708Z,29.65
2022-12-01T18:38:48.035Z,31.48
2022-12-01T18:41:14.920Z,28.85
2022-12-01T18:43:42.790Z,36.20
2022-12-01T18:46:10.779Z,31.50
2022-12-01T18:48:38.016Z,30.60
2022-12-01T18:51:05.485Z,31.85
2022-12-01T18:53:33.045Z,33.28
2022-12-01T18:56:06.841Z,33.08
2022-12-01T18:58:33.919Z,25.58
2022-12-01T19:01:01.140Z,28.63
2022-12-01T19:03:31.485Z,27.85
2022-12-01T19:05:58.104Z,28.55
2022-12-01T19:08:24.549Z,30.65
2022-12-01T19:10:58.250Z,28.02
2022-12-01T19:13:24.677Z,30.13
2022-12-01T19:15:51.117Z,27.25
2022-12-01T19:18:17.757Z,29.60
2022-12-01T19:20:44.218Z,31.10
2022-12-01T19:23:10.643Z,32.95
2022-12-01T19:25:37.365Z,29.25
2022-12-01T19:28:03.923Z,30.05
2022-12-01T19:30:30.376Z,35.85
2022-12-01T19:32:56.787Z,34.10
2022-12-01T19:35:23.317Z,30.15
2022-12-01T19:37:50.330Z,29.80
2022-12-01T19:40:16.847Z,25.92
2022-12-01T19:42:43.295Z,26.50
2022-12-01T19:45:10.106Z,23.58
2022-12-01T19:47:37.517Z,26.27
2022-12-01T19:50:05.222Z,26.63
2022-12-01T19:52:31.663Z,23.38
2022-12-01T19:54:58.150Z,20.27
2022-12-01T19:57:24.608Z,19.42
2022-12-01T19:59:51.109Z,19.55
2022-12-01T20:02:17.673Z,20.83
2022-12-01T20:04:44.256Z,18.08
2022-12-01T20:07:10.690Z,21.95
2022-12-01T20:09:37.337Z,20.42
2022-12-01T20:12:03.824Z,19.25
2022-12-01T20:14:30.287Z,20.13
2022-12-01T20:16:56.843Z,22.13
2022-12-01T20:19:23.463Z,22.38
2022-12-01T20:21:50.125Z,21.50
2022-12-01T20:24:19.945Z,21.92
2022-12-01T20:26:47.912Z,22.10
2022-12-01T20:29:16.083Z,15.10
2022-12-01T20:31:43.058Z,21.98
2022-12-01T20:34:16.324Z,21.92
2022-12-01T20:36:42.775Z,18.58
2022-12-01T20:39:10.054Z,20.45
2022-12-01T20:41:36.887Z,19.90
2022-12-01T20:44:07.141Z,16.95
2022-12-01T20:46:34.136Z,17.55
2022-12-01T20:49:00.579Z,16.65
2022-12-01T20:51:26.990Z,17.27
2022-12-01T20:54:19.855Z,15.73
2022-12-01T20:56:39.902Z,11.68
2022-12-01T20:59:06.401Z,13.57
2022-12-01T21:01:33.041Z,10.65
2022-12-01T21:03:59.601Z,14.20
2022-12-01T21:06:26.123Z,12.40
2022-12-01T21:08:52.569Z,16.52
2022-12-01T21:11:41.180Z,15.35
2022-12-01T21:14:11.885Z,23.52
2022-12-01T21:16:39.224Z,32.42
2022-12-01T21:19:11.323Z,21.75
2022-12-01T21:21:41.395Z,74.90
2022-12-01T21:24:07.791Z,41.45
2022-12-01T21:26:35.853Z,14.90
2022-12-01T21:29:02.782Z,16.45
2022-12-01T21:31:29.514Z,18.15
2022-12-01T21:33:56.155Z,16.38
2022-12-01T21:36:24.074Z,12.75
2022-12-01T21:38:53.732Z,13.52
2022-12-01T21:41:27.744Z,18.40
2022-12-01T21:43:55.645Z,15.65
2022-12-01T21:46:22.363Z,14.75
2022-12-01T21:48:49.872Z,13.43
2022-12-01T21:51:19.070Z,15.43
2022-12-01T21:53:45.588Z,17.58
2022-12-01T21:56:21.318Z,15.85
2022-12-01T21:58:48.137Z,13.50
2022-12-01T22:01:16.013Z,11.23
2022-12-01T22:03:44.282Z,13.68
2022-12-01T22:06:35.000Z,12.63
2022-12-01T22:09:10.465Z,12.00
2022-12-01T22:11:36.878Z,11.73
2022-12-01T22:14:16.854Z,10.45
2022-12-01T22:16:49.320Z,12.13
2022-12-01T22:19:15.798Z,10.30
2022-12-01T22:21:49.433Z,12.18
2022-12-01T22:24:24.986Z,11.15
2022-12-01T22:27:06.265Z,10.05
2022-12-01T22:29:35.721Z,12.00
2022-12-01T22:32:11.032Z,12.38
2022-12-01T22:34:38.241Z,13.43
2022-12-01T22:37:14.403Z,10.82
2022-12-01T22:39:40.849Z,13.30
2022-12-01T22:42:13.634Z,11.13
2022-12-01T22:44:41.507Z,13.43
2022-12-01T22:47:08.705Z,10.50
2022-12-01T22:49:35.156Z,11.10
2022-12-01T22:52:22.396Z,12.93
2022-12-01T22:54:50.154Z,12.27
2022-12-01T22:57:22.903Z,12.52
2022-12-01T22:59:50.331Z,13.30
2022-12-01T23:02:24.634Z,13.70
2022-12-01T23:04:53.553Z,9.60
2022-12-01T23:07:28.428Z,11.85
2022-12-01T23:10:16.386Z,14.75
2022-12-01T23:12:43.668Z,12.82
2022-12-01T23:15:29.059Z,11.80
2022-12-01T23:17:55.501Z,10.77
2022-12-01T23:20:28.109Z,12.25
2022-12-01T23:22:55.803Z,9.70
2022-12-01T23:25:23.352Z,10.35
2022-12-01T23:27:50.858Z,10.50
2022-12-01T23:30:18.797Z,9.82
2022-12-01T23:32:46.388Z,12.57
2022-12-01T23:35:17.109Z,10.63
2022-12-01T23:37:44.624Z,14.07
2022-12-01T23:40:31.503Z,14.95
2022-12-01T23:42:59.078Z,17.05
2022-12-01T23:45:27.022Z,18.67
2022-12-01T23:47:54.484Z,11.45
2022-12-01T23:50:27.492Z,9.27
2022-12-01T23:52:53.924Z,9.38
2022-12-01T23:55:27.172Z,9.07
2022-12-01T23:57:53.916Z,9.18
